Time;durP1;ratioP1;P1;durP2;ratioP2;P2;SDS_P1;SDS_P2;PMS_P1;PMS_P2;Temp;Humidity;BMP_temperature;BMP_pressure;BME280_temperature;BME280_humidity;BME280_pressure;Samples;Min_cycle;Max_cycle;Signal;HPM_P1;HPM_P2
2022/07/06 00:01:10;;;;;;;;;;;;;;;17.36;51.72;97053.16;5075056;28;19961;-71
2022/07/06 00:03:36;;;;;;;;;;;;;;;17.33;51.94;97054.47;5074843;28;19962;-70
2022/07/06 00:06:02;;;;;;;;;;;;;;;17.31;50.71;97045.16;5074900;28;19996;-71
2022/07/06 00:08:28;;;;;;;;;;;;;;;17.29;51.38;97050.69;5074678;28;20037;-71
2022/07/06 00:10:54;;;;;;;;;;;;;;;17.28;52.14;97053.59;5074727;28;19966;-71
2022/07/06 00:13:20;;;;;;;;;;;;;;;17.25;51.54;97058.31;5073925;28;20397;-72
2022/07/06 00:15:46;;;;;;;;;;;;;;;17.25;52.19;97053.03;5075089;28;20052;-72
2022/07/06 00:18:12;;;;;;;;;;;;;;;17.24;52.11;97051.44;5074752;28;19960;-71
2022/07/06 00:20:38;;;;;;;;;;;;;;;17.25;52.59;97052.22;5073450;28;20040;-71
2022/07/06 00:23:04;;;;;;;;;;;;;;;17.24;52.33;97054.09;5074580;28;19964;-70
2022/07/06 00:25:29;;;;;;;;;;;;;;;17.26;52.57;97053.84;5074171;28;19971;-71
2022/07/06 00:27:55;;;;;;;;;;;;;;;17.25;52.05;97052.22;5074243;28;20033;-71
2022/07/06 00:30:21;;;;;;;;;;;;;;;17.21;52.24;97056.41;5074458;28;19976;-71
2022/07/06 00:32:47;;;;;;;;;;;;;;;17.17;51.53;97047.34;5074343;28;19960;-71
2022/07/06 00:35:13;;;;;;;;;;;;;;;17.14;52.31;97053.16;5074421;28;19962;-71
2022/07/06 00:37:39;;;;;;;;;;;;;;;17.11;52.55;97053.63;5074278;28;20010;-72
2022/07/06 00:40:05;;;;;;;;;;;;;;;17.08;52.70;97049.63;5073996;28;20402;-71
2022/07/06 00:42:38;;;;;;;;;;;;;;;17.07;52.62;97055.94;5074011;28;19973;-71
2022/07/06 00:45:04;;;;;;;;;;;;;;;17.05;52.94;97055.44;5074387;28;20422;-72
2022/07/06 00:47:30;;;;;;;;;;;;;;;17.03;52.62;97046.91;5074083;28;19962;-71
2022/07/06 00:50:14;;;;;;;;;;;;;;;17.03;52.95;97052.22;5072700;28;19966;-71
2022/07/06 00:53:00;;;;;;;;;;;;;;;16.99;53.10;97048.44;5074190;28;19969;-71
2022/07/06 00:55:30;;;;;;;;;;;;;;;16.95;53.15;97052.63;5065189;28;19966;-71
2022/07/06 00:57:56;;;;;;;;;;;;;;;16.92;52.27;97042.50;5073714;28;19965;-71
2022/07/06 01:00:24;;;;;;;;;;;;;;;16.90;52.34;97041.94;5074088;28;20399;-71
2022/07/06 01:02:50;;;;;;;;;;;;;;;16.87;52.80;97050.38;5073863;28;19964;-71
2022/07/06 01:05:16;;;;;;;;;;;;;;;16.84;52.86;97051.69;5073678;28;20036;-71
2022/07/06 01:07:43;;;;;;;;;;;;;;;16.78;53.28;97042.81;5073812;28;19980;-71
2022/07/06 01:10:11;;;;;;;;;;;;;;;16.74;52.91;97039.06;5073644;28;19982;-71
2022/07/06 01:12:38;;;;;;;;;;;;;;;16.73;53.13;97039.28;5073538;28;19956;-70
2022/07/06 01:15:05;;;;;;;;;;;;;;;16.72;53.70;97046.44;5073377;28;19952;-70
2022/07/06 01:17:32;;;;;;;;;;;;;;;16.70;53.28;97050.38;5073687;28;19969;-71
2022/07/06 01:19:58;;;;;;;;;;;;;;;16.71;53.59;97054.63;5073735;28;19951;-70
2022/07/06 01:22:24;;;;;;;;;;;;;;;16.71;53.54;97049.31;5073519;28;19960;-70
2022/07/06 01:24:49;;;;;;;;;;;;;;;16.70;53.67;97045.09;5073341;28;19979;-71
2022/07/06 01:27:15;;;;;;;;;;;;;;;16.71;53.36;97044.03;5073378;28;20007;-71
2022/07/06 01:29:41;;;;;;;;;;;;;;;16.71;53.56;97041.38;5073649;28;20431;-70
2022/07/06 01:32:07;;;;;;;;;;;;;;;16.67;53.44;97041.03;5073403;28;20010;-71
2022/07/06 01:34:34;;;;;;;;;;;;;;;16.65;53.77;97045.78;5073592;28;19953;-71
2022/07/06 01:36:59;;;;;;;;;;;;;;;16.63;53.20;97043.41;5073379;28;20412;-71
2022/07/06 01:39:25;;;;;;;;;;;;;;;16.60;53.53;97038.56;5073611;28;19970;-71
2022/07/06 01:41:51;;;;;;;;;;;;;;;16.58;53.51;97038.00;5073512;28;19963;-70
2022/07/06 01:44:17;;;;;;;;;;;;;;;16.55;53.84;97038.50;5073464;28;19958;-70
2022/07/06 01:46:43;;;;;;;;;;;;;;;16.51;53.64;97040.03;5073337;28;19962;-70
2022/07/06 01:49:09;;;;;;;;;;;;;;;16.49;53.95;97046.63;5073473;28;19953;-71
2022/07/06 01:51:35;;;;;;;;;;;;;;;16.48;53.95;97042.34;5073355;28;19985;-71
2022/07/06 01:54:00;;;;;;;;;;;;;;;16.44;53.88;97042.84;5073616;28;19970;-71
2022/07/06 01:56:26;;;;;;;;;;;;;;;16.43;54.00;97049.16;5073355;28;19961;-71
2022/07/06 01:58:52;;;;;;;;;;;;;;;16.41;54.35;97053.91;5073327;28;19998;-70
2022/07/06 02:01:19;;;;;;;;;;;;;;;16.38;54.06;97051.75;5073187;28;19960;-71
2022/07/06 02:03:45;;;;;;;;;;;;;;;16.36;53.97;97050.38;5073552;28;19966;-71
2022/07/06 02:06:12;;;;;;;;;;;;;;;16.34;53.94;97053.25;5072985;28;19950;-71
2022/07/06 02:08:38;;;;;;;;;;;;;;;16.31;54.39;97048.44;5073754;28;19952;-71
2022/07/06 02:11:04;;;;;;;;;;;;;;;16.28;54.54;97048.91;5072981;28;19981;-71
2022/07/06 02:13:30;;;;;;;;;;;;;;;16.24;54.49;97047.78;5073289;28;19962;-71
2022/07/06 02:15:57;;;;;;;;;;;;;;;16.22;54.95;97058.59;5072579;28;19961;-71
2022/07/06 02:18:22;;;;;;;;;;;;;;;16.17;55.63;97057.75;5072010;28;19966;-71
2022/07/06 02:20:48;;;;;;;;;;;;;;;16.12;55.48;97057.63;5072946;28;19970;-71
2022/07/06 02:23:14;;;;;;;;;;;;;;;16.07;55.23;97058.34;5073107;28;19955;-71
2022/07/06 02:25:40;;;;;;;;;;;;;;;16.03;55.29;97054.56;5073116;28;20019;-71
2022/07/06 02:28:06;;;;;;;;;;;;;;;15.99;55.40;97059.53;5073174;28;19981;-71
2022/07/06 02:30:32;;;;;;;;;;;;;;;15.97;55.26;97061.59;5072391;28;20442;-71
2022/07/06 02:32:58;;;;;;;;;;;;;;;15.96;55.63;97061.88;5073281;28;19954;-71
2022/07/06 02:35:24;;;;;;;;;;;;;;;15.93;55.78;97060.47;5073604;28;20382;-71
2022/07/06 02:37:50;;;;;;;;;;;;;;;15.85;54.93;97057.41;5076590;28;20048;-71
2022/07/06 02:40:15;;;;;;;;;;;;;;;15.79;54.92;97065.25;5076486;28;20456;-71
2022/07/06 02:42:41;;;;;;;;;;;;;;;15.75;55.62;97068.63;5076662;28;20417;-71
2022/07/06 02:45:08;;;;;;;;;;;;;;;15.73;56.33;97073.34;5076360;28;20401;-71
2022/07/06 02:47:34;;;;;;;;;;;;;;;15.73;56.30;97071.50;5076662;28;19970;-70
2022/07/06 02:49:59;;;;;;;;;;;;;;;15.73;56.45;97074.13;5076390;28;19955;-71
2022/07/06 02:52:25;;;;;;;;;;;;;;;15.72;56.52;97074.34;5076304;28;20050;-71
2022/07/06 02:54:51;;;;;;;;;;;;;;;15.72;56.50;97072.50;5074953;28;19987;-70
2022/07/06 02:57:17;;;;;;;;;;;;;;;15.71;56.59;97076.19;5076480;28;19953;-70
2022/07/06 02:59:44;;;;;;;;;;;;;;;15.70;56.86;97084.34;5076289;28;20012;-71
2022/07/06 03:02:10;;;;;;;;;;;;;;;15.70;56.84;97084.34;5076041;28;19957;-72
2022/07/06 03:04:35;;;;;;;;;;;;;;;15.67;56.70;97077.69;5076215;28;20432;-70
2022/07/06 03:07:01;;;;;;;;;;;;;;;15.66;57.00;97083.19;5076103;28;20045;-72
2022/07/06 03:09:27;;;;;;;;;;;;;;;15.63;57.31;97095.06;5074978;28;19956;-71
2022/07/06 03:11:53;;;;;;;;;;;;;;;15.61;57.45;97089.19;5074729;28;19978;-71
2022/07/06 03:14:19;;;;;;;;;;;;;;;15.60;57.39;97088.41;5075953;28;20046;-70
2022/07/06 03:16:45;;;;;;;;;;;;;;;15.58;57.60;97093.13;5075766;28;19963;-70
2022/07/06 03:19:11;;;;;;;;;;;;;;;15.57;57.87;97093.34;5074789;28;19952;-72
2022/07/06 03:21:37;;;;;;;;;;;;;;;15.54;57.89;97099.91;5075812;28;20320;-70
2022/07/06 03:24:03;;;;;;;;;;;;;;;15.50;57.82;97090.84;5075979;28;19956;-71
2022/07/06 03:26:29;;;;;;;;;;;;;;;15.49;58.23;97091.06;5075582;28;19952;-71
2022/07/06 03:28:55;;;;;;;;;;;;;;;15.46;58.14;97086.25;5075414;28;20038;-71
2022/07/06 03:31:21;;;;;;;;;;;;;;;15.43;58.13;97088.31;5075399;28;19977;-71
2022/07/06 03:33:47;;;;;;;;;;;;;;;15.43;58.71;97085.69;5075342;28;20387;-71
2022/07/06 03:36:13;;;;;;;;;;;;;;;15.41;58.26;97093.03;5075896;28;19959;-71
2022/07/06 03:38:38;;;;;;;;;;;;;;;15.40;58.73;97090.63;5075394;28;19965;-71
2022/07/06 03:41:04;;;;;;;;;;;;;;;15.38;58.90;97084.75;5075608;28;19959;-71
2022/07/06 03:43:30;;;;;;;;;;;;;;;15.37;58.35;97085.78;5075219;28;19967;-71
2022/07/06 03:45:56;;;;;;;;;;;;;;;15.34;59.28;97089.69;5075521;28;19970;-71
2022/07/06 03:48:22;;;;;;;;;;;;;;;15.34;58.53;97086.25;5075321;28;19997;-71
2022/07/06 03:50:48;;;;;;;;;;;;;;;15.29;58.93;97091.44;5075117;28;19999;-72
2022/07/06 03:53:14;;;;;;;;;;;;;;;15.26;59.59;97100.63;5075463;28;19958;-71
2022/07/06 03:55:40;;;;;;;;;;;;;;;15.24;59.63;97100.03;5074935;28;19996;-71
2022/07/06 03:58:05;;;;;;;;;;;;;;;15.27;60.06;97098.81;5075045;28;20473;-71
2022/07/06 04:00:32;;;;;;;;;;;;;;;15.26;59.29;97086.59;5074953;28;20045;-70
2022/07/06 04:02:58;;;;;;;;;;;;;;;15.24;60.14;97089.47;5075041;28;19953;-70
2022/07/06 04:05:24;;;;;;;;;;;;;;;15.23;59.93;97083.41;5074817;28;20001;-71
2022/07/06 04:07:49;;;;;;;;;;;;;;;15.23;60.86;97088.69;5075144;28;20048;-70
2022/07/06 04:10:16;;;;;;;;;;;;;;;15.23;60.45;97088.69;5074792;28;20466;-71
2022/07/06 04:12:44;;;;;;;;;;;;;;;15.21;59.77;97093.38;5074840;28;19983;-70
2022/07/06 04:15:11;;;;;;;;;;;;;;;15.18;60.75;97098.31;5074652;28;20319;-71
2022/07/06 04:18:15;;;;;;;;;;;;;;;15.18;59.95;97095.69;5052707;28;19960;-71
2022/07/06 04:20:42;;;;;;;;;;;;;;;15.19;61.08;97092.03;5052704;28;20043;-71
2022/07/06 04:23:07;;;;;;;;;;;;;;;15.24;61.07;97094.75;5062566;28;20318;-71
2022/07/06 04:25:34;;;;;;;;;;;;;;;15.29;61.55;97092.25;5074353;28;19951;-71
2022/07/06 04:28:00;;;;;;;;;;;;;;;15.35;61.09;97093.13;5074495;28;19984;-71
2022/07/06 04:30:26;;;;;;;;;;;;;;;15.40;60.87;97090.63;5074296;28;19966;-70
2022/07/06 04:32:51;;;;;;;;;;;;;;;15.42;60.56;97091.97;5074401;28;19970;-71
2022/07/06 04:35:18;;;;;;;;;;;;;;;15.46;60.94;97088.88;5074231;28;19949;-71
2022/07/06 04:37:45;;;;;;;;;;;;;;;15.49;60.15;97089.22;5074089;28;20062;-71
2022/07/06 04:40:12;;;;;;;;;;;;;;;15.54;61.32;97104.38;5074049;28;20034;-71
2022/07/06 04:42:37;;;;;;;;;;;;;;;15.59;60.62;97100.00;5074128;28;19963;-71
2022/07/06 04:45:04;;;;;;;;;;;;;;;15.66;60.14;97093.78;5073993;28;20049;-71
2022/07/06 04:47:30;;;;;;;;;;;;;;;15.71;60.61;97105.25;5074064;28;19950;-71
2022/07/06 04:49:56;;;;;;;;;;;;;;;15.78;60.48;97099.88;5073924;28;20418;-71
2022/07/06 04:52:22;;;;;;;;;;;;;;;15.85;60.35;97097.88;5073933;28;20009;-70
2022/07/06 04:54:48;;;;;;;;;;;;;;;15.96;60.12;97089.13;5072541;28;19946;-71
2022/07/06 04:57:14;;;;;;;;;;;;;;;16.03;59.48;97092.41;5073886;28;19993;-71
2022/07/06 04:59:40;;;;;;;;;;;;;;;16.08;59.69;97091.69;5073679;28;20037;-71
2022/07/06 05:02:06;;;;;;;;;;;;;;;16.14;59.30;97095.25;5073824;28;20332;-71
2022/07/06 05:04:32;;;;;;;;;;;;;;;16.20;60.42;97100.38;5073765;28;19962;-72
2022/07/06 05:06:58;;;;;;;;;;;;;;;16.32;60.14;97105.63;5073697;28;19949;-71
2022/07/06 05:09:24;;;;;;;;;;;;;;;16.46;59.71;97105.31;5073717;28;19962;-72
2022/07/06 05:11:50;;;;;;;;;;;;;;;16.61;59.37;97097.66;5064588;28;19979;-70
2022/07/06 05:14:16;;;;;;;;;;;;;;;16.78;59.24;97102.94;5073576;28;19950;-71
2022/07/06 05:16:42;;;;;;;;;;;;;;;16.97;59.24;97119.44;5073800;28;19949;-71
2022/07/06 05:19:08;;;;;;;;;;;;;;;17.16;58.44;97112.81;5073715;28;20461;-71
2022/07/06 05:21:34;;;;;;;;;;;;;;;17.36;58.09;97106.19;5073644;28;19959;-71
2022/07/06 05:24:00;;;;;;;;;;;;;;;17.56;57.62;97100.34;5073544;28;19946;-71
2022/07/06 05:26:25;;;;;;;;;;;;;;;17.79;57.18;97094.78;5073686;28;20015;-71
2022/07/06 05:28:51;;;;;;;;;;;;;;;18.00;56.73;97095.84;5073300;28;20472;-71
2022/07/06 05:31:17;;;;;;;;;;;;;;;18.23;56.54;97094.75;5073283;28;19969;-71
2022/07/06 05:33:43;;;;;;;;;;;;;;;18.42;55.48;97089.88;5073460;28;19961;-71
2022/07/06 05:36:09;;;;;;;;;;;;;;;18.61;56.14;97095.63;5073365;28;19993;-71
2022/07/06 05:38:35;;;;;;;;;;;;;;;18.83;54.99;97090.22;5072143;28;19961;-71
2022/07/06 05:41:00;;;;;;;;;;;;;;;19.03;54.64;97092.25;5073350;28;19994;-71
2022/07/06 05:43:26;;;;;;;;;;;;;;;19.22;53.91;97095.28;5073462;28;19956;-71
2022/07/06 05:45:52;;;;;;;;;;;;;;;19.31;53.65;97092.94;5073421;28;20369;-71
2022/07/06 05:51:02;;;;;;;;;;;;;;;19.60;53.11;97082.69;5062189;28;19971;-71
2022/07/06 05:53:28;;;;;;;;;;;;;;;19.78;52.96;97088.63;5073363;28;19963;-71
2022/07/06 05:55:54;;;;;;;;;;;;;;;19.96;52.35;97082.06;5073295;28;20426;-71
2022/07/06 05:58:20;;;;;;;;;;;;;;;20.09;52.09;97081.53;5071268;28;19950;-70
2022/07/06 06:00:46;;;;;;;;;;;;;;;20.27;51.66;97080.25;5073099;28;20423;-71
2022/07/06 06:03:12;;;;;;;;;;;;;;;20.33;51.14;97075.75;5073066;28;19962;-71
2022/07/06 06:05:38;;;;;;;;;;;;;;;20.34;51.29;97074.66;5073300;28;19952;-71
2022/07/06 06:08:04;;;;;;;;;;;;;;;20.46;51.20;97076.00;5073101;28;20001;-72
2022/07/06 06:10:29;;;;;;;;;;;;;;;20.60;51.00;97076.31;5073893;28;19985;-71
2022/07/06 06:12:55;;;;;;;;;;;;;;;20.75;50.59;97078.16;5077014;28;19976;-71
2022/07/06 06:15:21;;;;;;;;;;;;;;;20.91;50.51;97072.81;5077118;28;19964;-71
2022/07/06 06:17:47;;;;;;;;;;;;;;;20.99;50.05;97077.59;5076859;28;19962;-72
2022/07/06 06:20:14;;;;;;;;;;;;;;;21.07;49.64;97074.41;5076863;28;20012;-71
2022/07/06 06:22:53;;;;;;;;;;;;;;;21.16;49.48;97080.75;5076954;28;19964;-71
2022/07/06 06:25:20;;;;;;;;;;;;;;;21.15;48.88;97075.72;5076734;28;19954;-72
2022/07/06 06:27:47;;;;;;;;;;;;;;;21.15;48.29;97079.19;5076796;28;19985;-72
2022/07/06 06:30:13;;;;;;;;;;;;;;;21.13;48.67;97085.84;5076497;28;19977;-71
2022/07/06 06:32:39;;;;;;;;;;;;;;;21.08;48.69;97083.97;5076431;28;19970;-71
2022/07/06 06:35:06;;;;;;;;;;;;;;;21.14;48.87;97084.78;5076647;28;19960;-71
2022/07/06 06:37:32;;;;;;;;;;;;;;;21.24;48.94;97090.88;5076664;28;19960;-71
2022/07/06 06:39:58;;;;;;;;;;;;;;;21.35;47.97;97085.53;5076416;28;19994;-71
2022/07/06 06:42:24;;;;;;;;;;;;;;;21.44;48.17;97083.91;5076339;28;20045;-71
2022/07/06 06:44:49;;;;;;;;;;;;;;;21.60;48.05;97082.78;5075925;28;20382;-72
2022/07/06 06:47:15;;;;;;;;;;;;;;;21.79;48.02;97084.84;5075208;28;19957;-71
2022/07/06 06:49:41;;;;;;;;;;;;;;;21.89;47.21;97080.25;5076315;28;20047;-71
2022/07/06 06:52:07;;;;;;;;;;;;;;;21.91;46.83;97076.53;5076327;28;20433;-70
2022/07/06 06:54:33;;;;;;;;;;;;;;;22.01;46.90;97079.94;5075622;28;20000;-71
2022/07/06 06:56:59;;;;;;;;;;;;;;;22.23;46.63;97081.44;5076342;28;19979;-70
2022/07/06 06:59:25;;;;;;;;;;;;;;;22.46;46.45;97082.63;5076765;28;20021;-70
2022/07/06 07:01:50;;;;;;;;;;;;;;;22.63;44.52;97072.31;5074842;28;20010;-71
2022/07/06 07:04:17;;;;;;;;;;;;;;;22.72;45.36;97071.72;5076593;28;19974;-71
2022/07/06 07:06:43;;;;;;;;;;;;;;;22.78;45.47;97076.72;5076187;28;19964;-71
2022/07/06 07:09:09;;;;;;;;;;;;;;;22.87;45.50;97075.06;5075958;28;20057;-71
2022/07/06 07:11:35;;;;;;;;;;;;;;;22.96;45.43;97077.91;5075963;28;20494;-71
2022/07/06 07:14:01;;;;;;;;;;;;;;;23.01;44.92;97080.56;5075931;28;19965;-71
2022/07/06 07:16:27;;;;;;;;;;;;;;;22.93;44.42;97070.47;5075751;28;19963;-71
2022/07/06 07:18:53;;;;;;;;;;;;;;;22.82;45.41;97083.13;5075694;28;19994;-71
2022/07/06 07:21:19;;;;;;;;;;;;;;;22.70;45.84;97088.84;5075602;28;20000;-71
2022/07/06 07:23:45;;;;;;;;;;;;;;;22.74;45.40;97081.06;5075616;28;19958;-72
2022/07/06 07:26:11;;;;;;;;;;;;;;;22.76;44.24;97073.53;5075550;28;19958;-72
2022/07/06 07:28:37;;;;;;;;;;;;;;;22.81;44.63;97065.50;5075757;28;20066;-71
2022/07/06 07:31:04;;;;;;;;;;;;;;;22.87;44.64;97068.91;5075398;28;19964;-72
2022/07/06 07:33:29;;;;;;;;;;;;;;;22.90;44.58;97071.81;5075585;28;19950;-71
2022/07/06 07:35:55;;;;;;;;;;;;;;;22.98;44.76;97072.28;5075527;28;19957;-71
2022/07/06 07:38:21;;;;;;;;;;;;;;;23.07;44.87;97076.75;5075319;28;19950;-72
2022/07/06 07:40:47;;;;;;;;;;;;;;;23.12;43.54;97072.44;5075355;28;19955;-72
2022/07/06 07:43:13;;;;;;;;;;;;;;;23.09;43.84;97063.09;5075402;28;20033;-71
2022/07/06 07:45:39;;;;;;;;;;;;;;;23.13;44.24;97071.38;5075523;28;19953;-71
2022/07/06 07:48:05;;;;;;;;;;;;;;;23.19;42.94;97059.53;5075220;28;19959;-72
2022/07/06 07:50:31;;;;;;;;;;;;;;;23.24;44.01;97067.50;5075257;28;20423;-71
2022/07/06 07:52:57;;;;;;;;;;;;;;;23.34;43.35;97066.59;5074993;28;19974;-72
2022/07/06 07:55:23;;;;;;;;;;;;;;;23.40;43.03;97065.47;5075217;28;19967;-71
2022/07/06 07:57:49;;;;;;;;;;;;;;;23.39;43.20;97064.66;5075117;28;19981;-71
2022/07/06 08:00:15;;;;;;;;;;;;;;;23.43;43.35;97064.88;5074918;28;19958;-72
2022/07/06 08:02:41;;;;;;;;;;;;;;;23.54;43.02;97066.38;5075246;28;19986;-71
2022/07/06 08:05:07;;;;;;;;;;;;;;;23.46;41.15;97062.44;5073973;28;20372;-72
2022/07/06 08:07:33;;;;;;;;;;;;;;;23.43;42.64;97071.03;5074765;28;19966;-71
2022/07/06 08:09:59;;;;;;;;;;;;;;;23.41;42.61;97067.03;5075042;28;19974;-71
2022/07/06 08:12:26;;;;;;;;;;;;;;;23.35;42.31;97073.53;5074500;28;20439;-71
2022/07/06 08:14:51;;;;;;;;;;;;;;;23.34;41.40;97059.34;5074772;28;19969;-71
2022/07/06 08:17:17;;;;;;;;;;;;;;;23.44;42.42;97077.19;5075049;28;19966;-72
2022/07/06 08:19:43;;;;;;;;;;;;;;;23.52;42.92;97076.56;5058675;28;20385;-71
2022/07/06 08:22:09;;;;;;;;;;;;;;;23.56;42.45;97074.91;5074556;28;20319;-72
2022/07/06 08:24:35;;;;;;;;;;;;;;;23.59;41.99;97074.31;5074580;28;19961;-72
2022/07/06 08:27:02;;;;;;;;;;;;;;;23.64;41.96;97062.75;5074479;28;19954;-72
2022/07/06 08:29:28;;;;;;;;;;;;;;;23.67;42.65;97064.88;5075425;28;19994;-72
2022/07/06 08:31:53;;;;;;;;;;;;;;;23.59;40.75;97063.63;5073326;28;20444;-72
2022/07/06 08:34:19;;;;;;;;;;;;;;;23.36;41.99;97067.91;5073702;28;19962;-71
2022/07/06 08:36:45;;;;;;;;;;;;;;;23.13;42.71;97076.72;5074380;28;20016;-72
2022/07/06 08:39:11;;;;;;;;;;;;;;;23.21;43.68;97087.59;5074041;28;20051;-72
2022/07/06 08:41:40;;;;;;;;;;;;;;;23.25;44.27;97085.97;5074116;28;19955;-73
2022/07/06 08:44:06;;;;;;;;;;;;;;;23.34;43.10;97080.78;5074399;28;19955;-73
2022/07/06 08:46:32;;;;;;;;;;;;;;;23.37;43.11;97087.44;5074246;28;19964;-72
2022/07/06 08:49:00;;;;;;;;;;;;;;;23.46;43.08;97083.06;5072993;28;19958;-72
2022/07/06 08:51:27;;;;;;;;;;;;;;;23.55;41.66;97073.31;5061940;28;19961;-72
2022/07/06 08:53:53;;;;;;;;;;;;;;;23.64;43.11;97087.63;5073861;28;19955;-72
2022/07/06 08:56:19;;;;;;;;;;;;;;;23.71;42.56;97076.59;5073875;28;19983;-72
2022/07/06 08:58:45;;;;;;;;;;;;;;;23.73;41.81;97076.28;5074055;28;20413;-72
2022/07/06 09:01:11;;;;;;;;;;;;;;;23.75;42.16;97079.47;5073892;28;19974;-72
2022/07/06 09:03:40;;;;;;;;;;;;;;;23.70;41.95;97070.44;5073865;28;19978;-71
2022/07/06 09:06:07;;;;;;;;;;;;;;;23.76;41.70;97073.88;5073691;28;20427;-72
2022/07/06 09:08:33;;;;;;;;;;;;;;;23.74;41.30;97072.53;5074035;28;19966;-72
2022/07/06 09:10:59;;;;;;;;;;;;;;;23.79;42.45;97075.19;5074157;28;20314;-72
2022/07/06 09:13:25;;;;;;;;;;;;;;;23.80;42.23;97074.91;5073864;28;20029;-72
2022/07/06 09:15:51;;;;;;;;;;;;;;;23.86;41.59;97073.75;5074034;28;19961;-72
2022/07/06 09:18:16;;;;;;;;;;;;;;;23.96;39.97;97055.94;5073759;28;19955;-72
2022/07/06 09:20:42;;;;;;;;;;;;;;;24.05;40.63;97063.03;5073659;28;20012;-72
2022/07/06 09:23:08;;;;;;;;;;;;;;;24.06;41.29;97072.66;5072409;28;21000;-72
2022/07/06 09:25:35;;;;;;;;;;;;;;;23.65;41.10;97070.50;5073505;28;20003;-72
2022/07/06 09:28:01;;;;;;;;;;;;;;;23.62;41.94;97080.97;5073373;28;19993;-72
2022/07/06 09:30:27;;;;;;;;;;;;;;;23.56;42.16;97082.94;5073449;28;19968;-72
2022/07/06 09:32:54;;;;;;;;;;;;;;;23.61;41.60;97082.88;5072571;28;19971;-72
2022/07/06 09:35:23;;;;;;;;;;;;;;;23.71;42.78;97090.78;5073625;28;19958;-72
2022/07/06 09:38:04;;;;;;;;;;;;;;;23.87;42.43;97088.72;5073593;28;19960;-72
2022/07/06 09:40:33;;;;;;;;;;;;;;;23.95;41.69;97084.63;5073343;28;20337;-72
2022/07/06 09:43:09;;;;;;;;;;;;;;;24.04;41.86;97090.13;5073555;28;19965;-72
2022/07/06 09:45:35;;;;;;;;;;;;;;;24.09;41.95;97084.72;5067361;28;19975;-72
2022/07/06 09:48:11;;;;;;;;;;;;;;;24.00;40.94;97081.88;5076398;28;20421;-72
2022/07/06 09:51:06;;;;;;;;;;;;;;;23.98;41.06;97083.22;5077662;28;19958;-72
2022/07/06 09:53:35;;;;;;;;;;;;;;;23.96;40.61;97080.88;5064571;28;19968;-72
2022/07/06 09:56:01;;;;;;;;;;;;;;;23.77;40.78;97086.19;5077398;28;19954;-71
2022/07/06 09:58:27;;;;;;;;;;;;;;;23.78;41.88;97095.81;5077461;28;20407;-72
2022/07/06 10:00:53;;;;;;;;;;;;;;;23.81;42.01;97091.75;5077200;28;19958;-72
2022/07/06 10:03:19;;;;;;;;;;;;;;;23.83;41.84;97095.78;5076856;28;20018;-72
2022/07/06 10:05:47;;;;;;;;;;;;;;;23.96;41.74;97093.44;5077224;28;19959;-72
2022/07/06 10:08:13;;;;;;;;;;;;;;;24.09;41.74;97104.25;5077219;28;19959;-72
2022/07/06 10:10:40;;;;;;;;;;;;;;;24.20;39.54;97082.69;5077057;28;20421;-72
2022/07/06 10:13:06;;;;;;;;;;;;;;;24.18;40.57;97085.63;5076044;28;20335;-72
2022/07/06 10:15:33;;;;;;;;;;;;;;;24.05;39.40;97083.69;5076938;28;19956;-72
2022/07/06 10:18:00;;;;;;;;;;;;;;;24.14;40.04;97084.63;5076786;28;19982;-72
2022/07/06 10:20:31;;;;;;;;;;;;;;;24.31;41.28;97100.19;5077113;28;20442;-72
2022/07/06 10:23:01;;;;;;;;;;;;;;;24.34;41.11;97088.91;5076890;28;19962;-72
2022/07/06 10:25:27;;;;;;;;;;;;;;;24.49;41.15;97090.59;5076860;28;19965;-72
2022/07/06 10:27:56;;;;;;;;;;;;;;;24.58;41.28;97091.50;5076510;28;19987;-72
2022/07/06 10:30:22;;;;;;;;;;;;;;;24.45;41.39;97094.91;5076767;28;20329;-72
2022/07/06 10:32:52;;;;;;;;;;;;;;;24.24;40.71;97089.03;5076615;28;19972;-72
2022/07/06 10:35:18;;;;;;;;;;;;;;;24.02;39.26;97084.25;5076628;28;20419;-72
2022/07/06 10:37:45;;;;;;;;;;;;;;;23.84;40.51;97093.88;5076385;28;19963;-71
2022/07/06 10:42:59;;;;;;;;;;;;;;;23.87;41.28;97096.75;5070066;28;19968;-72
2022/07/06 10:45:28;;;;;;;;;;;;;;;23.72;41.02;97099.59;5076403;28;19959;-72
2022/07/06 10:48:17;;;;;;;;;;;;;;;23.42;41.83;97098.88;5076212;28;19963;-72
2022/07/06 10:50:50;;;;;;;;;;;;;;;23.29;42.78;97107.59;5076257;28;19952;-72
2022/07/06 10:53:17;;;;;;;;;;;;;;;23.28;43.35;97119.38;5076478;28;19984;-72
2022/07/06 10:55:46;;;;;;;;;;;;;;;23.25;43.41;97115.38;5075989;28;19953;-72
2022/07/06 10:58:11;;;;;;;;;;;;;;;23.20;42.93;97111.97;5076117;28;19958;-72
2022/07/06 11:00:54;;;;;;;;;;;;;;;23.10;43.36;97111.00;5076420;28;20397;-72
2022/07/06 11:03:50;;;;;;;;;;;;;;;23.09;43.74;97116.63;5076010;28;19960;-72
2022/07/06 11:06:23;;;;;;;;;;;;;;;23.07;43.54;97119.56;5071589;28;20410;-72
2022/07/06 11:08:49;;;;;;;;;;;;;;;22.93;44.35;97123.97;5075766;28;19966;-72
2022/07/06 11:11:16;;;;;;;;;;;;;;;22.95;45.22;97121.00;5076009;28;20056;-72
2022/07/06 11:13:49;;;;;;;;;;;;;;;22.97;44.17;97105.47;5074495;28;19975;-72
2022/07/06 11:16:19;;;;;;;;;;;;;;;23.03;45.24;97118.53;5075998;28;20328;-72
2022/07/06 11:18:49;;;;;;;;;;;;;;;23.09;44.46;97112.06;5075953;28;19959;-72
2022/07/06 11:21:23;;;;;;;;;;;;;;;23.23;44.83;97114.88;5075870;28;20322;-72
2022/07/06 11:23:50;;;;;;;;;;;;;;;23.56;45.08;97115.06;5075627;28;19958;-72
2022/07/06 11:26:16;;;;;;;;;;;;;;;23.82;44.32;97115.59;5076000;28;19954;-72
2022/07/06 11:28:45;;;;;;;;;;;;;;;24.13;43.42;97106.34;5075450;28;19986;-72
2022/07/06 11:31:11;;;;;;;;;;;;;;;24.26;43.11;97106.44;5075339;28;19960;-72
2022/07/06 11:33:36;;;;;;;;;;;;;;;24.19;43.52;97099.81;5075425;28;20438;-72
2022/07/06 11:36:12;;;;;;;;;;;;;;;24.07;43.64;97105.63;5075579;28;20050;-72
2022/07/06 11:38:38;;;;;;;;;;;;;;;23.88;42.44;97089.53;5075291;28;20324;-72
2022/07/06 11:41:04;;;;;;;;;;;;;;;23.64;43.18;97100.25;5075668;28;20292;-72
2022/07/06 11:43:30;;;;;;;;;;;;;;;23.43;43.36;97094.31;5075353;28;19958;-72
2022/07/06 11:45:56;;;;;;;;;;;;;;;23.31;44.22;97100.09;5075231;28;19953;-72
2022/07/06 11:48:22;;;;;;;;;;;;;;;23.28;44.40;97097.97;5075175;28;19988;-72
2022/07/06 11:50:58;;;;;;;;;;;;;;;23.29;45.34;97104.94;5075126;28;19958;-72
2022/07/06 11:53:24;;;;;;;;;;;;;;;23.36;45.78;97105.38;5075275;28;20443;-72
2022/07/06 11:55:50;;;;;;;;;;;;;;;23.41;45.43;97099.16;5075528;28;19993;-72
2022/07/06 11:58:24;;;;;;;;;;;;;;;23.36;44.64;97099.22;5075273;28;19966;-72
2022/07/06 12:01:06;;;;;;;;;;;;;;;23.38;44.76;97100.53;5074777;28;20360;-72
2022/07/06 12:03:32;;;;;;;;;;;;;;;23.58;44.45;97096.84;5074950;28;19965;-72
2022/07/06 12:05:58;;;;;;;;;;;;;;;23.72;44.03;97086.22;5074853;28;19952;-72
2022/07/06 12:08:24;;;;;;;;;;;;;;;23.79;45.07;97093.94;5073799;28;19972;-72
2022/07/06 12:10:50;;;;;;;;;;;;;;;24.03;43.78;97085.84;5074862;28;19953;-72
2022/07/06 12:13:16;;;;;;;;;;;;;;;24.02;43.61;97077.03;5074755;28;19975;-72
2022/07/06 12:15:42;;;;;;;;;;;;;;;24.08;43.44;97078.53;5074852;28;20400;-72
2022/07/06 12:18:08;;;;;;;;;;;;;;;23.99;43.41;97072.25;5074528;28;19962;-72
2022/07/06 12:20:34;;;;;;;;;;;;;;;23.88;44.17;97071.56;5074952;28;19963;-72
2022/07/06 12:23:04;;;;;;;;;;;;;;;23.83;42.81;97063.63;5074450;28;20323;-72
2022/07/06 12:25:30;;;;;;;;;;;;;;;23.88;44.59;97070.78;5074456;28;19959;-71
2022/07/06 12:27:56;;;;;;;;;;;;;;;23.87;43.39;97069.19;5074604;28;19986;-71
2022/07/06 12:30:26;;;;;;;;;;;;;;;23.78;43.44;97076.28;5074251;28;20427;-72
2022/07/06 12:33:10;;;;;;;;;;;;;;;23.62;43.57;97075.63;5074404;28;19977;-72
2022/07/06 12:35:36;;;;;;;;;;;;;;;23.54;44.03;97078.94;5068204;28;19965;-72
2022/07/06 12:38:02;;;;;;;;;;;;;;;23.76;44.94;97084.59;5074261;28;20362;-72
2022/07/06 12:40:29;;;;;;;;;;;;;;;23.75;44.85;97084.84;5074300;28;19963;-72
2022/07/06 12:42:55;;;;;;;;;;;;;;;23.63;44.11;97072.66;5074178;28;19954;-72
2022/07/06 12:45:26;;;;;;;;;;;;;;;23.67;44.32;97071.00;5074228;28;19996;-72
2022/07/06 12:48:05;;;;;;;;;;;;;;;23.82;43.32;97067.38;5074124;28;19948;-72
2022/07/06 12:50:34;;;;;;;;;;;;;;;24.05;44.00;97067.63;5074151;28;20436;-72
2022/07/06 12:53:00;;;;;;;;;;;;;;;24.27;43.34;97062.47;5074129;28;19974;-72